createdAt,value
2022-12-25T00:01:23.138Z,55.20
2022-12-25T00:03:36.515Z,66.80
2022-12-25T00:05:49.933Z,62.60
2022-12-25T00:08:03.260Z,92.10
2022-12-25T00:10:17.403Z,81.60
2022-12-25T00:12:30.793Z,87.20
2022-12-25T00:14:44.216Z,73.80
2022-12-25T00:16:57.547Z,79.20
2022-12-25T00:19:10.943Z,94.30
2022-12-25T00:21:24.905Z,87.70
2022-12-25T00:23:38.813Z,92.60
2022-12-25T00:25:52.162Z,84.80
2022-12-25T00:28:05.458Z,71.80
2022-12-25T00:30:19.479Z,88.30
2022-12-25T00:32:32.973Z,81.40
2022-12-25T00:34:46.413Z,95.40
2022-12-25T00:36:59.851Z,111.60
2022-12-25T00:39:13.412Z,100.80
2022-12-25T00:41:40.931Z,79.20
2022-12-25T00:43:54.213Z,72.60
2022-12-25T00:46:09.353Z,74.10
2022-12-25T00:48:22.611Z,87.80
2022-12-25T00:50:35.874Z,84.40
2022-12-25T00:52:49.054Z,75.00
2022-12-25T00:55:02.313Z,66.40
2022-12-25T00:57:15.590Z,84.90
2022-12-25T00:59:28.719Z,57.60
2022-12-25T01:01:42.318Z,103.60
2022-12-25T01:03:55.905Z,81.70
2022-12-25T01:06:12.101Z,82.00
2022-12-25T01:08:25.530Z,113.50
2022-12-25T01:10:39.017Z,98.10
2022-12-25T01:12:53.437Z,78.40
2022-12-25T01:15:06.900Z,82.70
2022-12-25T01:17:20.296Z,69.00
2022-12-25T01:19:33.566Z,71.60
2022-12-25T01:21:46.900Z,77.70
2022-12-25T01:24:00.472Z,61.60
2022-12-25T01:26:15.800Z,48.30
2022-12-25T01:28:29.147Z,59.80
2022-12-25T01:30:43.181Z,117.00
2022-12-25T01:32:57.648Z,76.30
2022-12-25T01:35:11.797Z,89.00
2022-12-25T01:37:25.076Z,65.10
2022-12-25T01:39:38.209Z,59.70
2022-12-25T01:41:51.547Z,59.20
2022-12-25T01:44:08.660Z,68.00
2022-12-25T01:46:22.205Z,53.10
2022-12-25T01:48:39.193Z,55.50
2022-12-25T01:50:55.928Z,44.80
2022-12-25T01:53:09.805Z,52.80
2022-12-25T01:55:23.619Z,84.80
2022-12-25T01:57:39.706Z,90.50
2022-12-25T01:59:53.958Z,125.80
2022-12-25T02:02:07.620Z,82.70
2022-12-25T02:04:39.926Z,99.80
2022-12-25T02:06:55.143Z,53.00
2022-12-25T02:09:09.436Z,66.20
2022-12-25T02:11:38.033Z,57.10
2022-12-25T02:13:51.375Z,65.50
2022-12-25T02:16:10.230Z,65.60
2022-12-25T02:18:33.254Z,70.30
2022-12-25T02:21:21.705Z,70.50
2022-12-25T02:24:01.431Z,87.40
2022-12-25T02:26:28.969Z,90.50
2022-12-25T02:28:48.100Z,73.70
2022-12-25T02:31:08.036Z,45.10
2022-12-25T02:33:47.272Z,69.40
2022-12-25T02:36:04.514Z,71.60
2022-12-25T02:38:23.816Z,87.20
2022-12-25T02:40:41.496Z,57.50
2022-12-25T02:43:16.121Z,29.30
2022-12-25T02:45:52.299Z,31.20
2022-12-25T02:48:22.850Z,38.50
2022-12-25T02:50:53.014Z,37.80
2022-12-25T02:53:24.880Z,23.60
2022-12-25T02:56:01.551Z,16.50
2022-12-25T02:58:36.428Z,25.50
2022-12-25T03:01:10.431Z,29.70
2022-12-25T03:03:40.982Z,23.00
2022-12-25T03:06:11.764Z,16.90
2022-12-25T03:08:28.918Z,36.20
2022-12-25T03:11:01.076Z,40.50
2022-12-25T03:13:20.761Z,24.30
2022-12-25T03:15:51.902Z,28.70
2022-12-25T03:18:08.619Z,11.70
2022-12-25T03:20:40.610Z,16.60
2022-12-25T03:23:13.040Z,15.90
2022-12-25T03:25:42.811Z,8.50
2022-12-25T03:27:58.731Z,12.10
2022-12-25T03:30:31.794Z,18.60
2022-12-25T03:32:59.907Z,20.10
2022-12-25T03:35:26.650Z,9.80
2022-12-25T03:38:14.033Z,29.80
2022-12-25T03:41:04.639Z,32.80
2022-12-25T03:43:45.885Z,23.50
2022-12-25T03:46:19.412Z,28.40
2022-12-25T03:48:52.564Z,28.60
2022-12-25T03:51:27.700Z,34.40
2022-12-25T03:54:03.704Z,29.70
2022-12-25T03:56:36.290Z,30.30
2022-12-25T03:59:21.092Z,34.70
2022-12-25T04:01:53.350Z,32.00
2022-12-25T04:04:22.972Z,39.70
2022-12-25T04:06:52.191Z,18.70
2022-12-25T04:09:22.041Z,28.70
2022-12-25T04:11:52.622Z,49.90
2022-12-25T04:16:52.266Z,34.60
2022-12-25T04:19:21.767Z,21.50
2022-12-25T04:21:51.139Z,22.90
2022-12-25T04:24:20.708Z,18.60
2022-12-25T04:26:50.259Z,34.00
2022-12-25T04:29:19.961Z,36.60
2022-12-25T04:31:49.413Z,32.50
2022-12-25T04:34:19.233Z,29.00
2022-12-25T04:36:33.655Z,43.90
2022-12-25T04:38:48.155Z,28.50
2022-12-25T04:41:01.413Z,20.30
2022-12-25T04:43:14.611Z,35.60
2022-12-25T04:45:27.862Z,24.70
2022-12-25T04:47:41.169Z,18.70
2022-12-25T04:49:54.558Z,43.50
2022-12-25T04:52:07.830Z,57.20
2022-12-25T04:54:21.997Z,46.20
2022-12-25T04:56:38.494Z,78.90
2022-12-25T04:58:55.801Z,36.70
2022-12-25T05:01:09.595Z,31.70
2022-12-25T05:03:23.091Z,35.30
2022-12-25T05:05:36.923Z,35.40
2022-12-25T05:07:50.361Z,57.80
2022-12-25T05:10:03.828Z,30.30
2022-12-25T05:12:18.124Z,38.50
2022-12-25T05:14:31.760Z,36.30
2022-12-25T05:16:46.499Z,54.10
2022-12-25T05:18:59.948Z,38.40
2022-12-25T05:21:14.898Z,43.20
2022-12-25T05:23:29.618Z,57.00
2022-12-25T05:25:44.818Z,46.80
2022-12-25T05:27:59.072Z,33.70
2022-12-25T05:30:15.095Z,38.40
2022-12-25T05:32:28.502Z,35.30
2022-12-25T05:34:42.053Z,44.20
2022-12-25T05:36:55.403Z,35.00
2022-12-25T05:39:09.678Z,49.60
2022-12-25T05:41:23.235Z,55.60
2022-12-25T05:43:36.730Z,52.10
2022-12-25T05:45:50.819Z,64.60
2022-12-25T05:48:04.308Z,77.90
2022-12-25T05:50:17.922Z,41.90
2022-12-25T05:52:33.766Z,42.40
2022-12-25T05:54:47.182Z,42.20
2022-12-25T05:57:00.472Z,40.90
2022-12-25T05:59:13.791Z,94.20
2022-12-25T06:01:29.372Z,75.50
2022-12-25T06:03:42.927Z,87.20
2022-12-25T06:05:56.380Z,76.80
2022-12-25T06:08:09.647Z,93.70
2022-12-25T06:10:23.120Z,65.50
2022-12-25T06:12:36.337Z,59.70
2022-12-25T06:14:49.580Z,42.00
2022-12-25T06:17:03.156Z,53.80
2022-12-25T06:19:16.763Z,58.10
2022-12-25T06:21:30.023Z,68.00
2022-12-25T06:23:44.147Z,67.50
2022-12-25T06:25:57.392Z,89.20
2022-12-25T06:28:11.081Z,40.80
2022-12-25T06:30:27.034Z,35.70
2022-12-25T06:32:40.808Z,31.90
2022-12-25T06:34:54.304Z,64.80
2022-12-25T06:37:07.620Z,61.90
2022-12-25T06:39:20.797Z,52.50
2022-12-25T06:41:35.293Z,111.70
2022-12-25T06:43:50.902Z,67.90
2022-12-25T06:46:09.498Z,43.40
2022-12-25T06:48:22.878Z,56.00
2022-12-25T06:50:36.247Z,58.40
2022-12-25T06:52:49.648Z,40.30
2022-12-25T06:55:03.109Z,49.00
2022-12-25T06:57:16.490Z,46.70
2022-12-25T06:59:30.122Z,36.70
2022-12-25T07:01:49.219Z,60.50
2022-12-25T07:04:05.538Z,49.10
2022-12-25T07:06:19.447Z,50.60
2022-12-25T07:08:32.835Z,57.80
2022-12-25T07:10:46.533Z,52.10
2022-12-25T07:12:59.695Z,36.60
2022-12-25T07:15:15.201Z,56.90
2022-12-25T07:17:28.616Z,48.90
2022-12-25T07:19:45.153Z,53.50
2022-12-25T07:21:59.117Z,65.30
2022-12-25T07:24:13.244Z,60.70
2022-12-25T07:26:26.725Z,87.90
2022-12-25T07:28:40.515Z,90.60
2022-12-25T07:30:54.150Z,89.80
2022-12-25T07:33:07.614Z,56.60
2022-12-25T07:35:21.078Z,56.10
2022-12-25T07:37:35.364Z,87.60
2022-12-25T07:39:48.557Z,78.20
2022-12-25T07:42:02.129Z,127.60
2022-12-25T07:44:15.462Z,117.50
2022-12-25T07:46:29.475Z,113.00
2022-12-25T07:48:43.024Z,100.50
2022-12-25T07:51:02.646Z,95.80
2022-12-25T07:53:16.121Z,101.00
2022-12-25T07:55:29.511Z,112.00
2022-12-25T07:57:42.941Z,116.20
2022-12-25T07:59:56.303Z,130.70
2022-12-25T08:02:10.127Z,147.10
2022-12-25T08:04:24.327Z,115.20
2022-12-25T08:06:39.978Z,84.80
2022-12-25T08:08:53.361Z,87.90
2022-12-25T08:11:06.797Z,76.70
2022-12-25T08:13:20.145Z,96.00
2022-12-25T08:15:33.673Z,84.70
2022-12-25T08:17:46.945Z,117.90
2022-12-25T08:20:00.293Z,113.10
2022-12-25T08:22:13.866Z,64.20
2022-12-25T08:24:27.440Z,72.80
2022-12-25T08:26:40.983Z,91.70
2022-12-25T08:28:55.213Z,72.00
2022-12-25T08:31:12.704Z,85.70
2022-12-25T08:33:27.204Z,68.80
2022-12-25T08:35:42.106Z,66.00
2022-12-25T08:37:55.527Z,79.10
2022-12-25T08:40:09.754Z,82.90
2022-12-25T08:42:23.262Z,45.80
2022-12-25T08:44:36.671Z,67.80
2022-12-25T08:46:50.168Z,68.00
2022-12-25T08:49:03.570Z,51.40
2022-12-25T08:51:18.629Z,66.00
2022-12-25T08:53:32.135Z,61.90
2022-12-25T08:55:45.706Z,80.80
2022-12-25T08:58:01.044Z,107.30
2022-12-25T09:00:16.129Z,104.60
2022-12-25T09:02:30.073Z,113.60
2022-12-25T09:04:43.986Z,141.00
2022-12-25T09:06:57.430Z,115.90
2022-12-25T09:09:10.808Z,128.00
2022-12-25T09:11:25.627Z,110.40
2022-12-25T09:13:39.130Z,119.40
2022-12-25T09:15:52.724Z,110.30
2022-12-25T09:18:06.122Z,103.40
2022-12-25T09:20:19.556Z,94.70
2022-12-25T09:22:33.954Z,71.40
2022-12-25T09:24:47.431Z,60.70
2022-12-25T09:27:00.955Z,54.00
2022-12-25T09:29:15.833Z,65.80
2022-12-25T09:31:29.628Z,64.40
2022-12-25T09:33:43.434Z,56.70
2022-12-25T09:36:02.243Z,53.00
2022-12-25T09:38:15.724Z,79.80
2022-12-25T09:40:33.431Z,94.40
2022-12-25T09:42:47.545Z,75.90
2022-12-25T09:45:04.360Z,72.60
2022-12-25T09:47:22.212Z,74.40
2022-12-25T09:49:43.654Z,72.40
2022-12-25T09:52:03.124Z,64.70
2022-12-25T09:54:24.742Z,59.90
2022-12-25T09:56:39.643Z,97.60
2022-12-25T09:58:53.075Z,119.30
2022-12-25T10:01:17.548Z,162.60
2022-12-25T10:03:49.125Z,147.80
2022-12-25T10:06:18.700Z,112.00
2022-12-25T10:08:49.131Z,75.00
2022-12-25T10:11:08.265Z,81.00
2022-12-25T10:13:37.207Z,83.60
2022-12-25T10:16:07.494Z,103.10
2022-12-25T10:18:46.662Z,129.10
2022-12-25T10:21:01.445Z,153.90
2022-12-25T10:23:21.644Z,152.10
2022-12-25T10:25:35.331Z,193.40
2022-12-25T10:27:53.069Z,210.10
2022-12-25T10:30:09.975Z,232.70
2022-12-25T10:32:23.191Z,141.60
2022-12-25T10:34:37.124Z,124.70
2022-12-25T10:36:52.320Z,115.60
2022-12-25T10:39:05.765Z,110.80
2022-12-25T10:41:31.999Z,120.40
2022-12-25T10:43:51.265Z,100.60
2022-12-25T10:46:05.111Z,82.00
2022-12-25T10:48:26.190Z,68.40
2022-12-25T10:50:46.112Z,83.10
2022-12-25T10:53:03.496Z,87.20
2022-12-25T10:55:29.193Z,86.50
2022-12-25T10:57:50.770Z,83.60
2022-12-25T11:00:04.161Z,75.10
2022-12-25T11:02:25.037Z,137.40
2022-12-25T11:04:41.521Z,240.50
2022-12-25T11:07:04.526Z,305.70
2022-12-25T11:09:22.817Z,279.60
2022-12-25T11:11:36.543Z,275.20
2022-12-25T11:13:56.576Z,62.40
2022-12-25T11:16:13.750Z,131.70
2022-12-25T11:18:29.924Z,195.00
2022-12-25T11:20:47.118Z,390.50
2022-12-25T11:23:00.536Z,277.10
2022-12-25T11:25:27.775Z,327.00
2022-12-25T11:27:41.159Z,257.30
2022-12-25T11:29:58.407Z,179.70
2022-12-25T11:32:20.830Z,183.70
2022-12-25T11:34:39.600Z,142.60
2022-12-25T11:36:55.252Z,134.90
2022-12-25T11:39:24.889Z,107.60
2022-12-25T11:41:42.669Z,91.70
2022-12-25T11:44:00.516Z,65.80
2022-12-25T11:46:20.481Z,59.50
2022-12-25T11:48:38.869Z,69.00
2022-12-25T11:50:55.250Z,59.70
2022-12-25T11:53:10.350Z,57.40
2022-12-25T11:55:30.842Z,53.40
2022-12-25T11:57:47.417Z,47.70
2022-12-25T12:00:07.790Z,66.60
2022-12-25T12:02:33.467Z,89.00
2022-12-25T12:04:50.847Z,105.20
2022-12-25T12:07:08.408Z,122.90
2022-12-25T12:09:33.579Z,127.20
2022-12-25T12:11:57.230Z,99.80
2022-12-25T12:14:27.526Z,60.20
2022-12-25T12:16:41.612Z,66.70
2022-12-25T12:18:55.306Z,222.80
2022-12-25T12:21:23.875Z,390.40
2022-12-25T12:23:40.492Z,368.40
2022-12-25T12:25:54.071Z,378.40
2022-12-25T12:28:07.784Z,373.50
2022-12-25T12:30:32.430Z,319.30
2022-12-25T12:32:48.930Z,307.90
2022-12-25T12:35:04.172Z,217.90
2022-12-25T12:37:29.127Z,220.20
2022-12-25T12:39:45.767Z,241.40
2022-12-25T12:41:59.438Z,261.10
2022-12-25T12:44:15.166Z,267.80
2022-12-25T12:46:31.559Z,270.90
2022-12-25T12:48:49.718Z,263.70
2022-12-25T12:51:12.027Z,228.00
2022-12-25T12:53:34.555Z,206.60
2022-12-25T12:55:48.467Z,229.20
2022-12-25T12:58:07.868Z,176.30
2022-12-25T13:00:24.436Z,164.60
2022-12-25T13:03:09.239Z,143.70
2022-12-25T13:05:34.697Z,133.10
2022-12-25T13:07:57.803Z,111.70
2022-12-25T13:10:24.274Z,109.80
2022-12-25T13:12:38.761Z,106.50
2022-12-25T13:14:54.143Z,105.90
2022-12-25T13:17:11.455Z,81.30
2022-12-25T13:19:26.312Z,69.50
2022-12-25T13:21:39.828Z,70.80
2022-12-25T13:23:59.014Z,67.40
2022-12-25T13:26:18.131Z,64.60
2022-12-25T13:28:36.708Z,238.80
2022-12-25T13:30:50.184Z,323.90
2022-12-25T13:33:04.015Z,241.20
2022-12-25T13:35:20.969Z,154.70
2022-12-25T13:37:36.411Z,123.80
2022-12-25T13:39:55.310Z,77.00
2022-12-25T13:42:12.365Z,80.30
2022-12-25T13:44:29.638Z,71.80
2022-12-25T13:46:43.396Z,69.70
2022-12-25T13:49:03.379Z,45.30
2022-12-25T13:51:20.516Z,33.50
2022-12-25T13:53:34.033Z,28.90
2022-12-25T13:55:50.531Z,21.40
2022-12-25T13:58:06.945Z,21.40
2022-12-25T14:00:29.247Z,16.20
2022-12-25T14:02:44.194Z,248.50
2022-12-25T14:04:57.542Z,83.40
2022-12-25T14:07:21.826Z,63.80
2022-12-25T14:09:36.031Z,44.50
2022-12-25T14:11:53.975Z,43.80
2022-12-25T14:14:11.669Z,75.40
2022-12-25T14:16:25.964Z,97.10
2022-12-25T14:18:39.935Z,65.00
2022-12-25T14:21:05.960Z,52.70
2022-12-25T14:23:21.729Z,59.00
2022-12-25T14:25:38.738Z,100.10
2022-12-25T14:27:57.052Z,76.90
2022-12-25T14:30:19.542Z,48.90
2022-12-25T14:32:34.805Z,50.30
2022-12-25T14:34:49.797Z,60.20
2022-12-25T14:37:03.589Z,46.40
2022-12-25T14:39:38.343Z,42.60
2022-12-25T14:41:59.154Z,40.70
2022-12-25T14:44:35.419Z,45.60
2022-12-25T14:46:48.709Z,35.70
2022-12-25T14:49:08.265Z,32.60
2022-12-25T14:51:24.112Z,42.40
2022-12-25T14:53:42.268Z,50.30
2022-12-25T14:55:57.432Z,70.10
2022-12-25T14:58:22.160Z,65.40
2022-12-25T15:00:38.061Z,82.80
2022-12-25T15:02:53.131Z,67.50
2022-12-25T15:05:06.469Z,69.10
2022-12-25T15:07:33.598Z,54.20
2022-12-25T15:09:46.952Z,61.70
2022-12-25T15:12:00.945Z,49.60
2022-12-25T15:14:14.313Z,73.90
2022-12-25T15:16:30.176Z,74.60
2022-12-25T15:18:46.553Z,49.30
2022-12-25T15:21:00.103Z,76.80
2022-12-25T15:23:20.227Z,69.20
2022-12-25T15:25:33.968Z,55.80
2022-12-25T15:27:47.279Z,60.40
2022-12-25T15:30:09.822Z,35.50
2022-12-25T15:32:26.472Z,42.80
2022-12-25T15:34:39.972Z,52.80
2022-12-25T15:36:54.629Z,42.00
2022-12-25T15:39:07.928Z,55.30
2022-12-25T15:41:36.329Z,56.30
2022-12-25T15:43:49.874Z,67.30
2022-12-25T15:46:03.313Z,45.50
2022-12-25T15:48:16.595Z,53.90
2022-12-25T15:50:31.556Z,34.00
2022-12-25T15:52:44.798Z,44.00
2022-12-25T15:54:59.175Z,69.30
2022-12-25T15:57:20.630Z,61.50
2022-12-25T15:59:34.076Z,53.70
2022-12-25T16:01:50.881Z,56.80
2022-12-25T16:04:04.298Z,25.90
2022-12-25T16:06:20.810Z,80.90
2022-12-25T16:08:33.950Z,75.80
2022-12-25T16:10:48.293Z,71.40
2022-12-25T16:13:01.579Z,84.60
2022-12-25T16:15:18.032Z,92.40
2022-12-25T16:17:31.358Z,64.70
2022-12-25T16:19:45.756Z,85.60
2022-12-25T16:21:59.236Z,124.70
2022-12-25T16:24:13.907Z,98.00
2022-12-25T16:26:27.436Z,67.50
2022-12-25T16:28:40.868Z,58.80
2022-12-25T16:30:54.877Z,72.10
2022-12-25T16:33:09.065Z,72.10
2022-12-25T16:35:23.084Z,70.80
2022-12-25T16:37:36.531Z,72.70
2022-12-25T16:39:49.949Z,42.50
2022-12-25T16:42:03.381Z,58.10
2022-12-25T16:44:17.278Z,46.70
2022-12-25T16:46:31.079Z,36.90
2022-12-25T16:48:44.627Z,15.50
2022-12-25T16:50:57.989Z,19.20
2022-12-25T16:53:13.486Z,49.60
2022-12-25T16:55:30.214Z,58.40
2022-12-25T16:57:43.810Z,42.40
2022-12-25T16:59:57.209Z,36.70
2022-12-25T17:02:10.707Z,78.10
2022-12-25T17:04:24.113Z,77.10
2022-12-25T17:06:37.433Z,86.00
2022-12-25T17:08:50.746Z,89.60
2022-12-25T17:11:07.357Z,85.50
2022-12-25T17:13:20.798Z,102.40
2022-12-25T17:15:34.115Z,106.10
2022-12-25T17:17:47.373Z,74.50
2022-12-25T17:20:00.667Z,83.30
2022-12-25T17:22:14.073Z,91.40
2022-12-25T17:24:27.733Z,78.60
2022-12-25T17:26:42.088Z,87.20
2022-12-25T17:28:55.345Z,61.80
2022-12-25T17:31:11.324Z,56.00
2022-12-25T17:33:24.663Z,57.50
2022-12-25T17:35:41.064Z,59.80
2022-12-25T17:37:54.635Z,47.50
2022-12-25T17:40:08.377Z,54.80
2022-12-25T17:42:21.665Z,56.70
2022-12-25T17:44:35.076Z,44.60
2022-12-25T17:46:49.433Z,32.50
2022-12-25T17:49:04.186Z,43.00
2022-12-25T17:51:19.197Z,59.10
2022-12-25T17:53:34.831Z,58.00
2022-12-25T17:55:48.873Z,32.20
2022-12-25T17:58:02.748Z,40.90
2022-12-25T18:00:17.629Z,54.50
2022-12-25T18:02:32.146Z,66.10
2022-12-25T18:04:48.481Z,56.00
2022-12-25T18:07:04.617Z,39.90
2022-12-25T18:09:18.167Z,33.50
2022-12-25T18:11:34.153Z,21.40
2022-12-25T18:13:53.345Z,15.10
2022-12-25T18:16:11.155Z,5.50
2022-12-25T18:18:24.465Z,6.70
2022-12-25T18:20:40.501Z,3.60
2022-12-25T18:22:54.898Z,59.90
2022-12-25T18:25:08.557Z,33.70
2022-12-25T18:27:21.951Z,54.90
2022-12-25T18:29:35.302Z,44.70
2022-12-25T18:31:49.662Z,13.10
2022-12-25T18:34:03.353Z,7.20
2022-12-25T18:36:18.582Z,23.80
2022-12-25T18:38:32.367Z,39.20
2022-12-25T18:40:49.100Z,82.50
2022-12-25T18:43:03.708Z,50.70
2022-12-25T18:45:19.079Z,65.80
2022-12-25T18:47:32.632Z,53.80
2022-12-25T18:49:45.945Z,44.50
2022-12-25T18:52:49.351Z,58.00
2022-12-25T18:54:32.845Z,90.00
2022-12-25T18:56:52.940Z,145.40
2022-12-25T18:59:07.400Z,129.90
2022-12-25T19:01:23.651Z,53.70
2022-12-25T19:03:37.370Z,62.80
2022-12-25T19:05:51.167Z,62.10
2022-12-25T19:08:04.770Z,92.40
2022-12-25T19:10:18.135Z,95.20
2022-12-25T19:12:31.406Z,100.10
2022-12-25T19:14:48.144Z,138.80
2022-12-25T19:17:02.907Z,103.40
2022-12-25T19:19:16.710Z,80.10
2022-12-25T19:21:30.069Z,86.40
2022-12-25T19:23:43.836Z,81.50
2022-12-25T19:25:57.301Z,88.00
2022-12-25T19:28:10.888Z,89.00
2022-12-25T19:30:24.435Z,72.60
2022-12-25T19:32:38.973Z,102.70
2022-12-25T19:34:52.406Z,87.80
2022-12-25T19:37:05.737Z,95.70
2022-12-25T19:39:19.751Z,125.00
2022-12-25T19:41:34.150Z,121.80
2022-12-25T19:43:48.606Z,77.30
2022-12-25T19:46:02.771Z,50.20
2022-12-25T19:48:16.531Z,66.60
2022-12-25T19:50:31.891Z,97.30
2022-12-25T19:52:45.743Z,66.60
2022-12-25T19:54:59.295Z,87.30
2022-12-25T19:57:12.736Z,79.70
2022-12-25T19:59:26.361Z,67.00
2022-12-25T20:01:40.129Z,78.60
2022-12-25T20:03:54.300Z,139.40
2022-12-25T20:06:09.760Z,112.50
2022-12-25T20:08:23.714Z,90.80
2022-12-25T20:10:37.271Z,91.70
2022-12-25T20:12:51.149Z,91.60
2022-12-25T20:15:06.991Z,98.50
2022-12-25T20:17:20.431Z,82.80
2022-12-25T20:19:34.080Z,61.20
2022-12-25T20:21:47.520Z,59.60
2022-12-25T20:24:01.394Z,67.50
2022-12-25T20:26:15.883Z,54.50
2022-12-25T20:28:29.370Z,39.70
2022-12-25T20:30:45.083Z,47.40
2022-12-25T20:32:59.436Z,65.30
2022-12-25T20:35:17.911Z,60.80
2022-12-25T20:37:31.336Z,39.10
2022-12-25T20:39:45.084Z,71.20
2022-12-25T20:41:58.249Z,47.40
2022-12-25T20:44:14.321Z,69.20
2022-12-25T20:46:27.756Z,83.00
2022-12-25T20:48:41.017Z,69.30
2022-12-25T20:50:54.868Z,64.80
2022-12-25T20:53:08.020Z,55.70
2022-12-25T20:55:21.531Z,60.60
2022-12-25T20:57:34.949Z,36.10
2022-12-25T20:59:48.481Z,28.50
2022-12-25T21:02:02.080Z,40.30
2022-12-25T21:04:16.687Z,43.00
2022-12-25T21:06:31.572Z,44.20
2022-12-25T21:08:45.111Z,38.40
2022-12-25T21:11:01.899Z,30.70
2022-12-25T21:13:15.636Z,46.50
2022-12-25T21:15:29.056Z,69.20
2022-12-25T21:17:42.491Z,63.10
2022-12-25T21:19:55.837Z,88.30
2022-12-25T21:22:09.667Z,55.00
2022-12-25T21:24:22.987Z,65.20
2022-12-25T21:26:36.617Z,66.80
2022-12-25T21:28:51.158Z,79.00
2022-12-25T21:31:10.193Z,71.20
2022-12-25T21:33:40.238Z,78.20
2022-12-25T21:35:55.021Z,66.50
2022-12-25T21:38:08.418Z,54.30
2022-12-25T21:40:22.731Z,75.20
2022-12-25T21:42:35.955Z,99.10
2022-12-25T21:44:49.145Z,71.50
2022-12-25T21:47:03.386Z,51.50
2022-12-25T21:49:37.432Z,71.30
2022-12-25T21:52:15.410Z,46.00
2022-12-25T21:54:29.281Z,68.50
2022-12-25T21:56:45.293Z,59.60
2022-12-25T21:58:58.824Z,47.80
2022-12-25T22:01:12.862Z,87.60
2022-12-25T22:03:26.723Z,86.60
2022-12-25T22:05:58.571Z,102.80
2022-12-25T22:08:11.939Z,82.80
2022-12-25T22:10:25.280Z,76.20
2022-12-25T22:12:56.132Z,98.60
2022-12-25T22:15:11.372Z,83.80
2022-12-25T22:17:42.889Z,69.50
2022-12-25T22:19:57.656Z,88.50
2022-12-25T22:22:10.916Z,66.10
2022-12-25T22:24:24.405Z,89.60
2022-12-25T22:26:37.953Z,71.70
2022-12-25T22:28:51.277Z,80.50
2022-12-25T22:31:06.437Z,69.20
2022-12-25T22:33:21.747Z,51.70
2022-12-25T22:35:35.108Z,74.30
2022-12-25T22:37:49.496Z,73.70
2022-12-25T22:40:04.248Z,42.90
2022-12-25T22:42:17.629Z,65.50
2022-12-25T22:44:32.774Z,73.70
2022-12-25T22:46:46.101Z,54.80
2022-12-25T22:49:00.043Z,49.40
2022-12-25T22:51:14.035Z,43.00
2022-12-25T22:53:27.385Z,34.50
2022-12-25T22:55:40.598Z,33.00
2022-12-25T22:57:53.803Z,43.90
2022-12-25T23:00:07.931Z,53.60
2022-12-25T23:02:21.329Z,32.80
2022-12-25T23:04:34.983Z,18.60
2022-12-25T23:06:48.298Z,16.80
2022-12-25T23:09:01.829Z,26.70
2022-12-25T23:11:15.868Z,21.30
2022-12-25T23:13:45.389Z,38.70
2022-12-25T23:15:58.695Z,40.90
2022-12-25T23:18:28.984Z,81.80
2022-12-25T23:20:57.662Z,62.40
2022-12-25T23:23:29.007Z,69.70
2022-12-25T23:25:59.202Z,50.60
2022-12-25T23:28:12.542Z,56.30
2022-12-25T23:30:26.109Z,35.00
2022-12-25T23:32:39.583Z,33.10
2022-12-25T23:34:52.891Z,55.10
2022-12-25T23:37:06.228Z,38.10
2022-12-25T23:39:20.511Z,15.70
2022-12-25T23:41:34.015Z,15.80
2022-12-25T23:43:47.202Z,18.90
2022-12-25T23:46:00.427Z,34.50
2022-12-25T23:48:14.159Z,17.60
2022-12-25T23:50:27.432Z,18.90
2022-12-25T23:52:41.439Z,27.70
2022-12-25T23:54:54.625Z,24.00
2022-12-25T23:57:08.994Z,33.00
2022-12-25T23:59:22.641Z,43.80
